sensor_id;sensor_type;location;lat;lon;timestamp;P1;durP1;ratioP1;P2;durP2;ratioP2
5730;SDS011;2890;51.950;7.668;2023-05-15T00:02:07;10.77;;;10.00;;
5730;SDS011;2890;51.950;7.668;2023-05-15T00:04:33;11.77;;;9.83;;
5730;SDS011;2890;51.950;7.668;2023-05-15T00:07:00;11.10;;;10.10;;
5730;SDS011;2890;51.950;7.668;2023-05-15T00:09:27;10.87;;;9.97;;
5730;SDS011;2890;51.950;7.668;2023-05-15T00:11:54;10.90;;;9.97;;
5730;SDS011;2890;51.950;7.668;2023-05-15T00:14:21;11.23;;;10.33;;
5730;SDS011;2890;51.950;7.668;2023-05-15T00:16:47;11.27;;;10.40;;
5730;SDS011;2890;51.950;7.668;2023-05-15T00:19:14;12.77;;;11.77;;
5730;SDS011;2890;51.950;7.668;2023-05-15T00:21:40;11.20;;;10.50;;
5730;SDS011;2890;51.950;7.668;2023-05-15T00:24:07;11.30;;;10.40;;
5730;SDS011;2890;51.950;7.668;2023-05-15T00:26:35;11.17;;;10.30;;
5730;SDS011;2890;51.950;7.668;2023-05-15T00:29:01;12.00;;;10.50;;
5730;SDS011;2890;51.950;7.668;2023-05-15T00:31:28;11.50;;;10.13;;
5730;SDS011;2890;51.950;7.668;2023-05-15T00:33:54;11.80;;;11.00;;
5730;SDS011;2890;51.950;7.668;2023-05-15T00:36:21;12.27;;;11.37;;
5730;SDS011;2890;51.950;7.668;2023-05-15T00:38:49;13.17;;;12.07;;
5730;SDS011;2890;51.950;7.668;2023-05-15T00:41:16;11.80;;;10.80;;
5730;SDS011;2890;51.950;7.668;2023-05-15T00:43:44;12.37;;;11.17;;
5730;SDS011;2890;51.950;7.668;2023-05-15T00:46:11;13.33;;;12.23;;
5730;SDS011;2890;51.950;7.668;2023-05-15T00:48:38;14.20;;;12.90;;
5730;SDS011;2890;51.950;7.668;2023-05-15T00:51:06;12.83;;;11.63;;
5730;SDS011;2890;51.950;7.668;2023-05-15T00:53:33;13.00;;;12.00;;
5730;SDS011;2890;51.950;7.668;2023-05-15T00:56:00;14.50;;;13.10;;
5730;SDS011;2890;51.950;7.668;2023-05-15T00:58:28;19.00;;;13.13;;
5730;SDS011;2890;51.950;7.668;2023-05-15T01:00:57;12.90;;;11.90;;
5730;SDS011;2890;51.950;7.668;2023-05-15T01:03:24;14.27;;;13.17;;
5730;SDS011;2890;51.950;7.668;2023-05-15T01:05:50;13.83;;;12.70;;
5730;SDS011;2890;51.950;7.668;2023-05-15T01:08:18;13.67;;;12.67;;
5730;SDS011;2890;51.950;7.668;2023-05-15T01:10:46;14.00;;;13.00;;
5730;SDS011;2890;51.950;7.668;2023-05-15T01:13:13;14.13;;;13.00;;
5730;SDS011;2890;51.950;7.668;2023-05-15T01:15:41;13.80;;;12.80;;
5730;SDS011;2890;51.950;7.668;2023-05-15T01:18:09;13.30;;;12.30;;
5730;SDS011;2890;51.950;7.668;2023-05-15T01:20:38;13.73;;;12.73;;
5730;SDS011;2890;51.950;7.668;2023-05-15T01:23:22;14.90;;;13.73;;
5730;SDS011;2890;51.950;7.668;2023-05-15T01:26:00;14.13;;;13.03;;
5730;SDS011;2890;51.950;7.668;2023-05-15T01:28:48;15.37;;;14.17;;
5730;SDS011;2890;51.950;7.668;2023-05-15T01:31:18;14.67;;;13.60;;
5730;SDS011;2890;51.950;7.668;2023-05-15T01:33:49;15.57;;;14.07;;
5730;SDS011;2890;51.950;7.668;2023-05-15T01:36:20;14.97;;;13.77;;
5730;SDS011;2890;51.950;7.668;2023-05-15T01:38:51;15.10;;;13.77;;
5730;SDS011;2890;51.950;7.668;2023-05-15T01:41:20;14.70;;;13.40;;
5730;SDS011;2890;51.950;7.668;2023-05-15T01:43:51;14.67;;;13.47;;
5730;SDS011;2890;51.950;7.668;2023-05-15T01:46:22;15.50;;;13.90;;
5730;SDS011;2890;51.950;7.668;2023-05-15T01:48:49;15.70;;;14.40;;
5730;SDS011;2890;51.950;7.668;2023-05-15T01:51:16;16.93;;;15.63;;
5730;SDS011;2890;51.950;7.668;2023-05-15T01:53:44;15.40;;;14.10;;
5730;SDS011;2890;51.950;7.668;2023-05-15T01:56:12;14.70;;;13.70;;
5730;SDS011;2890;51.950;7.668;2023-05-15T01:58:40;15.50;;;14.30;;
5730;SDS011;2890;51.950;7.668;2023-05-15T02:01:08;16.07;;;14.63;;
5730;SDS011;2890;51.950;7.668;2023-05-15T02:03:35;15.67;;;14.30;;
5730;SDS011;2890;51.950;7.668;2023-05-15T02:06:02;16.30;;;14.80;;
5730;SDS011;2890;51.950;7.668;2023-05-15T02:08:30;16.33;;;15.03;;
5730;SDS011;2890;51.950;7.668;2023-05-15T02:10:57;16.20;;;15.00;;
5730;SDS011;2890;51.950;7.668;2023-05-15T02:13:24;16.20;;;14.90;;
5730;SDS011;2890;51.950;7.668;2023-05-15T02:15:51;15.83;;;14.63;;
5730;SDS011;2890;51.950;7.668;2023-05-15T02:18:19;16.07;;;14.67;;
5730;SDS011;2890;51.950;7.668;2023-05-15T02:20:46;17.50;;;16.10;;
5730;SDS011;2890;51.950;7.668;2023-05-15T02:23:12;16.63;;;15.13;;
5730;SDS011;2890;51.950;7.668;2023-05-15T02:25:41;16.60;;;14.90;;
5730;SDS011;2890;51.950;7.668;2023-05-15T02:28:13;17.80;;;16.30;;
5730;SDS011;2890;51.950;7.668;2023-05-15T02:30:45;17.60;;;16.10;;
5730;SDS011;2890;51.950;7.668;2023-05-15T02:33:17;18.70;;;17.20;;
5730;SDS011;2890;51.950;7.668;2023-05-15T02:35:49;18.13;;;16.50;;
5730;SDS011;2890;51.950;7.668;2023-05-15T02:38:18;18.47;;;16.63;;
5730;SDS011;2890;51.950;7.668;2023-05-15T02:40:46;18.73;;;17.20;;
5730;SDS011;2890;51.950;7.668;2023-05-15T02:43:13;20.70;;;19.00;;
5730;SDS011;2890;51.950;7.668;2023-05-15T02:45:40;20.93;;;19.10;;
5730;SDS011;2890;51.950;7.668;2023-05-15T02:48:07;21.37;;;19.47;;
5730;SDS011;2890;51.950;7.668;2023-05-15T02:50:35;21.53;;;19.57;;
5730;SDS011;2890;51.950;7.668;2023-05-15T02:53:02;22.03;;;20.00;;
5730;SDS011;2890;51.950;7.668;2023-05-15T02:55:29;21.53;;;19.73;;
5730;SDS011;2890;51.950;7.668;2023-05-15T02:57:56;23.03;;;20.83;;
5730;SDS011;2890;51.950;7.668;2023-05-15T03:00:22;24.10;;;21.50;;
5730;SDS011;2890;51.950;7.668;2023-05-15T03:02:49;22.23;;;20.27;;
5730;SDS011;2890;51.950;7.668;2023-05-15T03:05:15;24.40;;;22.10;;
5730;SDS011;2890;51.950;7.668;2023-05-15T03:07:43;23.60;;;21.27;;
5730;SDS011;2890;51.950;7.668;2023-05-15T03:10:09;24.70;;;22.50;;
5730;SDS011;2890;51.950;7.668;2023-05-15T03:12:36;26.73;;;23.57;;
5730;SDS011;2890;51.950;7.668;2023-05-15T03:15:03;27.13;;;24.23;;
5730;SDS011;2890;51.950;7.668;2023-05-15T03:17:30;32.40;;;25.37;;
5730;SDS011;2890;51.950;7.668;2023-05-15T03:19:57;31.30;;;25.73;;
5730;SDS011;2890;51.950;7.668;2023-05-15T03:22:23;28.73;;;25.83;;
5730;SDS011;2890;51.950;7.668;2023-05-15T03:24:51;31.20;;;27.90;;
5730;SDS011;2890;51.950;7.668;2023-05-15T03:27:18;30.53;;;27.33;;
5730;SDS011;2890;51.950;7.668;2023-05-15T03:29:44;31.97;;;28.40;;
5730;SDS011;2890;51.950;7.668;2023-05-15T03:32:13;36.43;;;29.30;;
5730;SDS011;2890;51.950;7.668;2023-05-15T03:34:39;35.80;;;31.57;;
5730;SDS011;2890;51.950;7.668;2023-05-15T03:37:06;34.37;;;30.63;;
5730;SDS011;2890;51.950;7.668;2023-05-15T03:39:32;38.90;;;33.83;;
5730;SDS011;2890;51.950;7.668;2023-05-15T03:42:00;44.40;;;36.70;;
5730;SDS011;2890;51.950;7.668;2023-05-15T03:44:27;44.10;;;38.00;;
5730;SDS011;2890;51.950;7.668;2023-05-15T03:46:54;40.97;;;36.57;;
5730;SDS011;2890;51.950;7.668;2023-05-15T03:49:20;47.40;;;39.73;;
5730;SDS011;2890;51.950;7.668;2023-05-15T03:51:46;50.97;;;39.97;;
5730;SDS011;2890;51.950;7.668;2023-05-15T03:54:13;57.47;;;42.30;;
5730;SDS011;2890;51.950;7.668;2023-05-15T03:56:39;47.47;;;39.43;;
5730;SDS011;2890;51.950;7.668;2023-05-15T03:59:07;52.43;;;40.37;;
5730;SDS011;2890;51.950;7.668;2023-05-15T04:01:34;55.03;;;42.00;;
5730;SDS011;2890;51.950;7.668;2023-05-15T04:04:00;57.17;;;42.33;;
5730;SDS011;2890;51.950;7.668;2023-05-15T04:06:27;47.57;;;40.90;;
5730;SDS011;2890;51.950;7.668;2023-05-15T04:08:54;50.50;;;40.57;;
5730;SDS011;2890;51.950;7.668;2023-05-15T04:11:20;52.13;;;40.30;;
5730;SDS011;2890;51.950;7.668;2023-05-15T04:13:47;51.57;;;42.07;;
5730;SDS011;2890;51.950;7.668;2023-05-15T04:16:15;52.17;;;42.17;;
5730;SDS011;2890;51.950;7.668;2023-05-15T04:18:42;51.80;;;42.70;;
5730;SDS011;2890;51.950;7.668;2023-05-15T04:21:08;52.90;;;44.20;;
5730;SDS011;2890;51.950;7.668;2023-05-15T04:23:35;49.90;;;43.20;;
5730;SDS011;2890;51.950;7.668;2023-05-15T04:26:01;49.83;;;41.90;;
5730;SDS011;2890;51.950;7.668;2023-05-15T04:28:28;56.07;;;43.97;;
5730;SDS011;2890;51.950;7.668;2023-05-15T04:30:55;52.50;;;42.27;;
5730;SDS011;2890;51.950;7.668;2023-05-15T04:33:24;59.80;;;45.47;;
5730;SDS011;2890;51.950;7.668;2023-05-15T04:35:50;52.17;;;44.00;;
5730;SDS011;2890;51.950;7.668;2023-05-15T04:38:17;50.70;;;41.77;;
5730;SDS011;2890;51.950;7.668;2023-05-15T04:40:43;54.07;;;44.70;;
5730;SDS011;2890;51.950;7.668;2023-05-15T04:43:10;52.63;;;44.27;;
5730;SDS011;2890;51.950;7.668;2023-05-15T04:45:37;59.07;;;45.57;;
5730;SDS011;2890;51.950;7.668;2023-05-15T04:48:03;52.47;;;42.30;;
5730;SDS011;2890;51.950;7.668;2023-05-15T04:50:31;54.10;;;44.30;;
5730;SDS011;2890;51.950;7.668;2023-05-15T04:52:58;54.07;;;43.63;;
5730;SDS011;2890;51.950;7.668;2023-05-15T04:55:24;55.27;;;44.97;;
5730;SDS011;2890;51.950;7.668;2023-05-15T04:57:51;60.23;;;44.70;;
5730;SDS011;2890;51.950;7.668;2023-05-15T05:00:17;55.03;;;44.60;;
5730;SDS011;2890;51.950;7.668;2023-05-15T05:02:44;55.17;;;43.97;;
5730;SDS011;2890;51.950;7.668;2023-05-15T05:05:11;54.03;;;43.07;;
5730;SDS011;2890;51.950;7.668;2023-05-15T05:07:40;54.67;;;43.73;;
5730;SDS011;2890;51.950;7.668;2023-05-15T05:10:08;54.47;;;45.43;;
5730;SDS011;2890;51.950;7.668;2023-05-15T05:12:35;55.83;;;44.73;;
5730;SDS011;2890;51.950;7.668;2023-05-15T05:15:01;56.30;;;44.27;;
5730;SDS011;2890;51.950;7.668;2023-05-15T05:17:28;52.80;;;43.30;;
5730;SDS011;2890;51.950;7.668;2023-05-15T05:19:54;54.27;;;44.50;;
5730;SDS011;2890;51.950;7.668;2023-05-15T05:22:21;58.33;;;45.57;;
5730;SDS011;2890;51.950;7.668;2023-05-15T05:24:51;59.63;;;44.93;;
5730;SDS011;2890;51.950;7.668;2023-05-15T05:27:18;60.93;;;45.67;;
5730;SDS011;2890;51.950;7.668;2023-05-15T05:29:44;58.13;;;45.63;;
5730;SDS011;2890;51.950;7.668;2023-05-15T05:32:11;58.63;;;44.50;;
5730;SDS011;2890;51.950;7.668;2023-05-15T05:34:37;54.30;;;42.73;;
5730;SDS011;2890;51.950;7.668;2023-05-15T05:37:04;51.33;;;41.67;;
5730;SDS011;2890;51.950;7.668;2023-05-15T05:39:30;55.40;;;43.70;;
5730;SDS011;2890;51.950;7.668;2023-05-15T05:41:58;60.80;;;42.03;;
5730;SDS011;2890;51.950;7.668;2023-05-15T05:44:25;61.03;;;42.17;;
5730;SDS011;2890;51.950;7.668;2023-05-15T05:46:51;48.67;;;38.40;;
5730;SDS011;2890;51.950;7.668;2023-05-15T05:49:18;48.10;;;39.63;;
5730;SDS011;2890;51.950;7.668;2023-05-15T05:51:44;48.13;;;37.60;;
5730;SDS011;2890;51.950;7.668;2023-05-15T05:54:11;47.17;;;39.00;;
5730;SDS011;2890;51.950;7.668;2023-05-15T05:56:38;47.20;;;38.17;;
5730;SDS011;2890;51.950;7.668;2023-05-15T05:59:07;47.93;;;38.53;;
5730;SDS011;2890;51.950;7.668;2023-05-15T06:01:33;49.00;;;39.57;;
5730;SDS011;2890;51.950;7.668;2023-05-15T06:04:00;52.90;;;39.60;;
5730;SDS011;2890;51.950;7.668;2023-05-15T06:06:26;47.20;;;38.60;;
5730;SDS011;2890;51.950;7.668;2023-05-15T06:08:53;50.70;;;39.70;;
5730;SDS011;2890;51.950;7.668;2023-05-15T06:11:19;48.90;;;40.30;;
5730;SDS011;2890;51.950;7.668;2023-05-15T06:13:46;46.83;;;38.50;;
5730;SDS011;2890;51.950;7.668;2023-05-15T06:16:14;51.70;;;39.30;;
5730;SDS011;2890;51.950;7.668;2023-05-15T06:18:40;44.20;;;37.53;;
5730;SDS011;2890;51.950;7.668;2023-05-15T06:21:07;45.70;;;36.50;;
5730;SDS011;2890;51.950;7.668;2023-05-15T06:23:33;45.20;;;36.20;;
5730;SDS011;2890;51.950;7.668;2023-05-15T06:26:00;45.27;;;36.80;;
5730;SDS011;2890;51.950;7.668;2023-05-15T06:28:26;44.80;;;36.63;;
5730;SDS011;2890;51.950;7.668;2023-05-15T06:30:53;43.70;;;35.87;;
5730;SDS011;2890;51.950;7.668;2023-05-15T06:33:21;45.83;;;35.60;;
5730;SDS011;2890;51.950;7.668;2023-05-15T06:35:47;41.47;;;34.80;;
5730;SDS011;2890;51.950;7.668;2023-05-15T06:38:14;44.50;;;36.60;;
5730;SDS011;2890;51.950;7.668;2023-05-15T06:40:41;42.20;;;37.00;;
5730;SDS011;2890;51.950;7.668;2023-05-15T06:43:07;43.47;;;36.47;;
5730;SDS011;2890;51.950;7.668;2023-05-15T06:45:34;45.67;;;38.00;;
5730;SDS011;2890;51.950;7.668;2023-05-15T06:48:00;47.00;;;36.77;;
5730;SDS011;2890;51.950;7.668;2023-05-15T06:50:29;42.63;;;35.57;;
5730;SDS011;2890;51.950;7.668;2023-05-15T06:52:55;42.27;;;35.00;;
5730;SDS011;2890;51.950;7.668;2023-05-15T06:55:22;38.90;;;33.40;;
5730;SDS011;2890;51.950;7.668;2023-05-15T06:57:48;41.67;;;35.47;;
5730;SDS011;2890;51.950;7.668;2023-05-15T07:00:15;38.33;;;32.50;;
5730;SDS011;2890;51.950;7.668;2023-05-15T07:02:42;35.50;;;31.50;;
5730;SDS011;2890;51.950;7.668;2023-05-15T07:05:08;40.77;;;33.97;;
5730;SDS011;2890;51.950;7.668;2023-05-15T07:07:36;38.20;;;33.07;;
5730;SDS011;2890;51.950;7.668;2023-05-15T07:10:03;45.03;;;34.03;;
5730;SDS011;2890;51.950;7.668;2023-05-15T07:12:30;37.70;;;33.20;;
5730;SDS011;2890;51.950;7.668;2023-05-15T07:14:58;40.20;;;33.37;;
5730;SDS011;2890;51.950;7.668;2023-05-15T07:17:24;40.00;;;33.87;;
5730;SDS011;2890;51.950;7.668;2023-05-15T07:19:51;42.70;;;34.67;;
5730;SDS011;2890;51.950;7.668;2023-05-15T07:22:17;41.73;;;33.97;;
5730;SDS011;2890;51.950;7.668;2023-05-15T07:24:45;36.90;;;32.37;;
5730;SDS011;2890;51.950;7.668;2023-05-15T07:27:11;38.83;;;33.00;;
5730;SDS011;2890;51.950;7.668;2023-05-15T07:29:38;43.80;;;32.93;;
5730;SDS011;2890;51.950;7.668;2023-05-15T07:32:05;41.70;;;33.00;;
5730;SDS011;2890;51.950;7.668;2023-05-15T07:34:32;39.47;;;33.50;;
5730;SDS011;2890;51.950;7.668;2023-05-15T07:36:58;38.73;;;34.30;;
5730;SDS011;2890;51.950;7.668;2023-05-15T07:39:25;41.03;;;33.70;;
5730;SDS011;2890;51.950;7.668;2023-05-15T07:41:52;38.53;;;34.33;;
5730;SDS011;2890;51.950;7.668;2023-05-15T07:44:19;36.07;;;30.23;;
5730;SDS011;2890;51.950;7.668;2023-05-15T07:46:45;38.43;;;33.37;;
5730;SDS011;2890;51.950;7.668;2023-05-15T07:49:12;36.33;;;32.07;;
5730;SDS011;2890;51.950;7.668;2023-05-15T07:51:38;38.73;;;31.90;;
5730;SDS011;2890;51.950;7.668;2023-05-15T07:54:06;32.87;;;29.33;;
5730;SDS011;2890;51.950;7.668;2023-05-15T07:56:33;35.17;;;31.40;;
5730;SDS011;2890;51.950;7.668;2023-05-15T07:59:01;36.93;;;32.60;;
5730;SDS011;2890;51.950;7.668;2023-05-15T08:01:27;37.57;;;31.97;;
5730;SDS011;2890;51.950;7.668;2023-05-15T08:03:54;39.83;;;32.37;;
5730;SDS011;2890;51.950;7.668;2023-05-15T08:06:22;36.90;;;31.60;;
5730;SDS011;2890;51.950;7.668;2023-05-15T08:08:48;36.37;;;30.70;;
5730;SDS011;2890;51.950;7.668;2023-05-15T08:11:15;32.23;;;28.83;;
5730;SDS011;2890;51.950;7.668;2023-05-15T08:13:43;36.53;;;31.50;;
5730;SDS011;2890;51.950;7.668;2023-05-15T08:16:11;34.40;;;30.77;;
5730;SDS011;2890;51.950;7.668;2023-05-15T08:18:38;36.30;;;30.50;;
5730;SDS011;2890;51.950;7.668;2023-05-15T08:21:04;33.50;;;29.90;;
5730;SDS011;2890;51.950;7.668;2023-05-15T08:23:31;32.63;;;29.13;;
5730;SDS011;2890;51.950;7.668;2023-05-15T08:25:58;31.87;;;28.57;;
5730;SDS011;2890;51.950;7.668;2023-05-15T08:28:24;33.93;;;29.33;;
5730;SDS011;2890;51.950;7.668;2023-05-15T08:30:50;35.87;;;31.90;;
5730;SDS011;2890;51.950;7.668;2023-05-15T08:33:18;32.37;;;28.90;;
5730;SDS011;2890;51.950;7.668;2023-05-15T08:35:45;33.10;;;28.50;;
5730;SDS011;2890;51.950;7.668;2023-05-15T08:38:11;33.20;;;29.60;;
5730;SDS011;2890;51.950;7.668;2023-05-15T08:40:38;33.70;;;29.97;;
5730;SDS011;2890;51.950;7.668;2023-05-15T08:43:07;31.47;;;27.03;;
5730;SDS011;2890;51.950;7.668;2023-05-15T08:45:39;35.63;;;27.10;;
5730;SDS011;2890;51.950;7.668;2023-05-15T08:48:05;31.50;;;27.70;;
5730;SDS011;2890;51.950;7.668;2023-05-15T08:50:37;31.13;;;27.77;;
5730;SDS011;2890;51.950;7.668;2023-05-15T08:53:04;29.90;;;26.90;;
5730;SDS011;2890;51.950;7.668;2023-05-15T08:55:31;30.53;;;27.23;;
5730;SDS011;2890;51.950;7.668;2023-05-15T08:57:58;28.73;;;25.30;;
5730;SDS011;2890;51.950;7.668;2023-05-15T09:00:25;31.40;;;28.10;;
5730;SDS011;2890;51.950;7.668;2023-05-15T09:02:52;32.60;;;29.10;;
5730;SDS011;2890;51.950;7.668;2023-05-15T09:05:19;33.70;;;28.60;;
5730;SDS011;2890;51.950;7.668;2023-05-15T09:07:47;30.63;;;27.33;;
5730;SDS011;2890;51.950;7.668;2023-05-15T09:10:14;31.27;;;28.07;;
5730;SDS011;2890;51.950;7.668;2023-05-15T09:12:41;32.10;;;28.60;;
5730;SDS011;2890;51.950;7.668;2023-05-15T09:15:09;31.97;;;28.57;;
5730;SDS011;2890;51.950;7.668;2023-05-15T09:17:37;34.23;;;29.53;;
5730;SDS011;2890;51.950;7.668;2023-05-15T09:20:04;33.37;;;29.30;;
5730;SDS011;2890;51.950;7.668;2023-05-15T09:22:32;32.80;;;29.30;;
5730;SDS011;2890;51.950;7.668;2023-05-15T09:25:01;28.93;;;25.93;;
5730;SDS011;2890;51.950;7.668;2023-05-15T09:27:29;30.50;;;27.27;;
5730;SDS011;2890;51.950;7.668;2023-05-15T09:30:07;30.23;;;27.13;;
5730;SDS011;2890;51.950;7.668;2023-05-15T09:32:34;30.30;;;27.20;;
5730;SDS011;2890;51.950;7.668;2023-05-15T09:35:01;29.43;;;26.43;;
5730;SDS011;2890;51.950;7.668;2023-05-15T09:37:28;29.73;;;26.70;;
5730;SDS011;2890;51.950;7.668;2023-05-15T09:39:56;29.77;;;26.87;;
5730;SDS011;2890;51.950;7.668;2023-05-15T09:42:35;29.80;;;26.90;;
5730;SDS011;2890;51.950;7.668;2023-05-15T09:45:01;28.37;;;25.43;;
5730;SDS011;2890;51.950;7.668;2023-05-15T09:47:28;31.03;;;28.03;;
5730;SDS011;2890;51.950;7.668;2023-05-15T09:49:55;30.73;;;27.33;;
5730;SDS011;2890;51.950;7.668;2023-05-15T09:52:21;29.87;;;26.70;;
5730;SDS011;2890;51.950;7.668;2023-05-15T09:54:48;30.17;;;27.10;;
5730;SDS011;2890;51.950;7.668;2023-05-15T09:57:19;29.50;;;26.47;;
5730;SDS011;2890;51.950;7.668;2023-05-15T09:59:47;29.30;;;26.43;;
5730;SDS011;2890;51.950;7.668;2023-05-15T10:02:18;30.70;;;27.60;;
5730;SDS011;2890;51.950;7.668;2023-05-15T10:04:52;31.20;;;28.10;;
5730;SDS011;2890;51.950;7.668;2023-05-15T10:07:25;31.07;;;27.90;;
5730;SDS011;2890;51.950;7.668;2023-05-15T10:09:52;29.77;;;26.70;;
5730;SDS011;2890;51.950;7.668;2023-05-15T10:12:20;26.97;;;24.10;;
5730;SDS011;2890;51.950;7.668;2023-05-15T10:14:47;28.40;;;25.70;;
5730;SDS011;2890;51.950;7.668;2023-05-15T10:17:15;29.13;;;26.13;;
5730;SDS011;2890;51.950;7.668;2023-05-15T10:19:43;29.00;;;26.33;;
5730;SDS011;2890;51.950;7.668;2023-05-15T10:22:09;27.37;;;24.77;;
5730;SDS011;2890;51.950;7.668;2023-05-15T10:24:36;27.47;;;25.00;;
5730;SDS011;2890;51.950;7.668;2023-05-15T10:27:04;28.63;;;26.00;;
5730;SDS011;2890;51.950;7.668;2023-05-15T10:29:34;26.47;;;24.27;;
5730;SDS011;2890;51.950;7.668;2023-05-15T10:32:01;25.13;;;23.03;;
5730;SDS011;2890;51.950;7.668;2023-05-15T10:34:29;34.13;;;30.90;;
5730;SDS011;2890;51.950;7.668;2023-05-15T10:36:56;29.60;;;26.97;;
5730;SDS011;2890;51.950;7.668;2023-05-15T10:39:22;27.63;;;25.33;;
5730;SDS011;2890;51.950;7.668;2023-05-15T10:41:49;28.30;;;25.83;;
5730;SDS011;2890;51.950;7.668;2023-05-15T10:44:16;29.80;;;27.17;;
5730;SDS011;2890;51.950;7.668;2023-05-15T10:46:44;26.97;;;24.57;;
5730;SDS011;2890;51.950;7.668;2023-05-15T10:49:11;28.80;;;26.30;;
5730;SDS011;2890;51.950;7.668;2023-05-15T10:51:37;27.20;;;24.87;;
5730;SDS011;2890;51.950;7.668;2023-05-15T10:54:04;25.97;;;23.77;;
5730;SDS011;2890;51.950;7.668;2023-05-15T10:56:31;25.03;;;22.57;;
5730;SDS011;2890;51.950;7.668;2023-05-15T10:59:03;23.90;;;21.90;;
5730;SDS011;2890;51.950;7.668;2023-05-15T11:01:31;25.67;;;23.57;;
5730;SDS011;2890;51.950;7.668;2023-05-15T11:04:06;23.80;;;21.90;;
5730;SDS011;2890;51.950;7.668;2023-05-15T11:06:34;22.90;;;21.00;;
5730;SDS011;2890;51.950;7.668;2023-05-15T11:12:05;23.47;;;21.23;;
5730;SDS011;2890;51.950;7.668;2023-05-15T11:14:34;24.37;;;22.17;;
5730;SDS011;2890;51.950;7.668;2023-05-15T11:17:02;24.67;;;22.57;;
5730;SDS011;2890;51.950;7.668;2023-05-15T11:19:32;23.17;;;21.37;;
5730;SDS011;2890;51.950;7.668;2023-05-15T11:22:00;23.97;;;21.97;;
5730;SDS011;2890;51.950;7.668;2023-05-15T11:24:28;24.97;;;22.97;;
5730;SDS011;2890;51.950;7.668;2023-05-15T11:26:58;25.40;;;23.30;;
5730;SDS011;2890;51.950;7.668;2023-05-15T11:29:25;28.37;;;25.87;;
5730;SDS011;2890;51.950;7.668;2023-05-15T11:31:52;25.53;;;23.33;;
5730;SDS011;2890;51.950;7.668;2023-05-15T11:34:27;26.87;;;24.50;;
5730;SDS011;2890;51.950;7.668;2023-05-15T11:36:56;27.33;;;24.70;;
5730;SDS011;2890;51.950;7.668;2023-05-15T11:39:23;22.90;;;20.90;;
5730;SDS011;2890;51.950;7.668;2023-05-15T11:41:50;22.20;;;20.20;;
5730;SDS011;2890;51.950;7.668;2023-05-15T11:44:20;21.67;;;19.87;;
5730;SDS011;2890;51.950;7.668;2023-05-15T11:46:47;21.23;;;19.40;;
5730;SDS011;2890;51.950;7.668;2023-05-15T11:49:14;22.40;;;20.40;;
5730;SDS011;2890;51.950;7.668;2023-05-15T11:51:42;23.43;;;21.27;;
5730;SDS011;2890;51.950;7.668;2023-05-15T11:54:10;23.30;;;21.00;;
5730;SDS011;2890;51.950;7.668;2023-05-15T11:56:40;24.00;;;21.57;;
5730;SDS011;2890;51.950;7.668;2023-05-15T11:59:09;23.53;;;21.47;;
5730;SDS011;2890;51.950;7.668;2023-05-15T12:01:38;23.43;;;21.43;;
5730;SDS011;2890;51.950;7.668;2023-05-15T12:04:10;23.97;;;21.70;;
5730;SDS011;2890;51.950;7.668;2023-05-15T12:06:37;24.43;;;22.23;;
5730;SDS011;2890;51.950;7.668;2023-05-15T12:09:04;26.77;;;24.40;;
5730;SDS011;2890;51.950;7.668;2023-05-15T12:11:33;22.97;;;20.87;;
5730;SDS011;2890;51.950;7.668;2023-05-15T12:13:59;24.03;;;21.70;;
5730;SDS011;2890;51.950;7.668;2023-05-15T12:16:26;23.37;;;21.07;;
5730;SDS011;2890;51.950;7.668;2023-05-15T12:18:55;23.57;;;21.00;;
5730;SDS011;2890;51.950;7.668;2023-05-15T12:21:22;23.53;;;21.03;;
5730;SDS011;2890;51.950;7.668;2023-05-15T12:23:49;20.60;;;18.80;;
5730;SDS011;2890;51.950;7.668;2023-05-15T12:26:17;20.57;;;18.53;;
5730;SDS011;2890;51.950;7.668;2023-05-15T12:28:47;19.97;;;17.93;;
5730;SDS011;2890;51.950;7.668;2023-05-15T12:31:15;20.03;;;18.13;;
5730;SDS011;2890;51.950;7.668;2023-05-15T12:33:42;17.60;;;15.83;;
5730;SDS011;2890;51.950;7.668;2023-05-15T12:36:09;18.43;;;16.67;;
5730;SDS011;2890;51.950;7.668;2023-05-15T12:38:35;17.63;;;16.07;;
5730;SDS011;2890;51.950;7.668;2023-05-15T12:41:02;17.67;;;16.07;;
5730;SDS011;2890;51.950;7.668;2023-05-15T12:43:29;15.97;;;14.73;;
5730;SDS011;2890;51.950;7.668;2023-05-15T12:45:57;17.50;;;16.00;;
5730;SDS011;2890;51.950;7.668;2023-05-15T12:48:28;16.37;;;14.73;;
5730;SDS011;2890;51.950;7.668;2023-05-15T12:50:54;18.53;;;16.40;;
5730;SDS011;2890;51.950;7.668;2023-05-15T12:53:21;16.17;;;14.67;;
5730;SDS011;2890;51.950;7.668;2023-05-15T12:55:47;14.47;;;13.07;;
5730;SDS011;2890;51.950;7.668;2023-05-15T12:58:14;13.23;;;11.93;;
5730;SDS011;2890;51.950;7.668;2023-05-15T13:00:42;12.50;;;11.30;;
5730;SDS011;2890;51.950;7.668;2023-05-15T13:03:11;12.43;;;11.33;;
5730;SDS011;2890;51.950;7.668;2023-05-15T13:05:40;12.93;;;11.93;;
5730;SDS011;2890;51.950;7.668;2023-05-15T13:08:07;13.60;;;12.53;;
5730;SDS011;2890;51.950;7.668;2023-05-15T13:10:35;14.37;;;13.13;;
5730;SDS011;2890;51.950;7.668;2023-05-15T13:13:02;14.97;;;12.67;;
5730;SDS011;2890;51.950;7.668;2023-05-15T13:15:29;14.03;;;12.70;;
5730;SDS011;2890;51.950;7.668;2023-05-15T13:18:00;13.80;;;12.60;;
5730;SDS011;2890;51.950;7.668;2023-05-15T13:20:29;13.40;;;12.20;;
5730;SDS011;2890;51.950;7.668;2023-05-15T13:22:58;11.33;;;10.43;;
5730;SDS011;2890;51.950;7.668;2023-05-15T13:25:24;11.07;;;10.10;;
5730;SDS011;2890;51.950;7.668;2023-05-15T13:27:51;11.20;;;10.30;;
5730;SDS011;2890;51.950;7.668;2023-05-15T13:30:17;11.10;;;10.10;;
5730;SDS011;2890;51.950;7.668;2023-05-15T13:32:44;8.50;;;7.90;;
5730;SDS011;2890;51.950;7.668;2023-05-15T13:35:11;8.20;;;7.50;;
5730;SDS011;2890;51.950;7.668;2023-05-15T13:37:39;8.87;;;8.27;;
5730;SDS011;2890;51.950;7.668;2023-05-15T13:40:06;8.53;;;7.83;;
5730;SDS011;2890;51.950;7.668;2023-05-15T13:42:34;9.60;;;7.60;;
5730;SDS011;2890;51.950;7.668;2023-05-15T13:45:01;9.10;;;8.30;;
5730;SDS011;2890;51.950;7.668;2023-05-15T13:47:28;8.57;;;7.87;;
5730;SDS011;2890;51.950;7.668;2023-05-15T13:49:55;7.53;;;7.00;;
5730;SDS011;2890;51.950;7.668;2023-05-15T13:52:22;14.17;;;8.03;;
5730;SDS011;2890;51.950;7.668;2023-05-15T13:54:49;8.37;;;7.87;;
5730;SDS011;2890;51.950;7.668;2023-05-15T13:57:16;6.77;;;6.27;;
5730;SDS011;2890;51.950;7.668;2023-05-15T13:59:43;7.67;;;7.10;;
5730;SDS011;2890;51.950;7.668;2023-05-15T14:02:09;10.20;;;7.03;;
5730;SDS011;2890;51.950;7.668;2023-05-15T14:04:36;7.93;;;7.30;;
5730;SDS011;2890;51.950;7.668;2023-05-15T14:07:02;7.30;;;6.80;;
5730;SDS011;2890;51.950;7.668;2023-05-15T14:09:29;9.07;;;8.03;;
5730;SDS011;2890;51.950;7.668;2023-05-15T14:11:57;9.40;;;8.70;;
5730;SDS011;2890;51.950;7.668;2023-05-15T14:14:23;7.90;;;7.20;;
5730;SDS011;2890;51.950;7.668;2023-05-15T14:16:50;9.40;;;7.33;;
5730;SDS011;2890;51.950;7.668;2023-05-15T14:19:17;7.77;;;7.27;;
5730;SDS011;2890;51.950;7.668;2023-05-15T14:21:43;7.37;;;6.90;;
5730;SDS011;2890;51.950;7.668;2023-05-15T14:24:10;7.20;;;6.70;;
5730;SDS011;2890;51.950;7.668;2023-05-15T14:26:36;7.63;;;7.03;;
5730;SDS011;2890;51.950;7.668;2023-05-15T14:29:04;7.43;;;6.67;;
5730;SDS011;2890;51.950;7.668;2023-05-15T14:31:30;8.33;;;7.40;;
5730;SDS011;2890;51.950;7.668;2023-05-15T14:33:57;8.10;;;7.40;;
5730;SDS011;2890;51.950;7.668;2023-05-15T14:36:23;7.80;;;7.20;;
5730;SDS011;2890;51.950;7.668;2023-05-15T14:38:50;7.10;;;6.40;;
5730;SDS011;2890;51.950;7.668;2023-05-15T14:41:16;6.27;;;5.77;;
5730;SDS011;2890;51.950;7.668;2023-05-15T14:43:43;7.57;;;6.93;;
5730;SDS011;2890;51.950;7.668;2023-05-15T14:46:11;11.03;;;7.00;;
5730;SDS011;2890;51.950;7.668;2023-05-15T14:48:37;6.60;;;6.10;;
5730;SDS011;2890;51.950;7.668;2023-05-15T14:51:04;6.93;;;6.43;;
5730;SDS011;2890;51.950;7.668;2023-05-15T14:53:31;10.10;;;6.40;;
5730;SDS011;2890;51.950;7.668;2023-05-15T14:55:58;7.20;;;6.57;;